createdAt,value
2023-01-15T00:00:15.518Z,11.10
2023-01-15T00:04:18.198Z,11.20
2023-01-15T00:08:20.005Z,11.20
2023-01-15T00:12:21.835Z,11.30
2023-01-15T00:16:24.926Z,11.30
2023-01-15T00:20:26.649Z,11.30
2023-01-15T00:24:47.124Z,11.40
2023-01-15T00:28:49.075Z,11.40
2023-01-15T00:32:51.048Z,11.40
2023-01-15T00:36:52.938Z,11.40
2023-01-15T00:40:54.656Z,11.50
2023-01-15T00:44:56.792Z,11.50
2023-01-15T00:48:58.872Z,11.50
2023-01-15T00:53:03.025Z,11.60
2023-01-15T00:57:04.968Z,11.60
2023-01-15T01:01:06.935Z,11.70
2023-01-15T01:05:09.282Z,11.70
2023-01-15T01:09:16.196Z,11.70
2023-01-15T01:13:17.872Z,11.70
2023-01-15T01:17:19.632Z,11.80
2023-01-15T01:21:21.584Z,11.80
2023-01-15T01:25:23.300Z,11.90
2023-01-15T01:29:25.356Z,11.90
2023-01-15T01:33:27.065Z,11.90
2023-01-15T01:37:28.829Z,11.90
2023-01-15T01:41:30.704Z,11.90
2023-01-15T01:45:33.383Z,12.00
2023-01-15T01:49:36.114Z,12.00
2023-01-15T01:53:37.911Z,12.00
2023-01-15T01:57:39.738Z,12.00
2023-01-15T02:01:41.603Z,12.10
2023-01-15T02:05:47.638Z,12.00
2023-01-15T02:09:49.429Z,12.00
2023-01-15T02:13:58.861Z,12.10
2023-01-15T02:18:32.333Z,12.10
2023-01-15T02:23:11.232Z,12.10
2023-01-15T02:27:18.511Z,12.20
2023-01-15T02:31:39.441Z,12.20
2023-01-15T02:36:00.823Z,12.30
2023-01-15T02:40:02.635Z,12.30
2023-01-15T02:44:04.727Z,12.30
2023-01-15T02:48:17.333Z,12.30
2023-01-15T02:52:29.260Z,12.30
2023-01-15T02:56:32.297Z,12.30
2023-01-15T03:00:36.625Z,12.30
2023-01-15T03:05:02.982Z,12.30
2023-01-15T03:09:06.128Z,12.30
2023-01-15T03:13:08.588Z,12.40
2023-01-15T03:17:22.926Z,12.40
2023-01-15T03:21:56.648Z,12.40
2023-01-15T03:26:01.118Z,12.40
2023-01-15T03:30:17.391Z,12.50
2023-01-15T03:34:19.574Z,12.50
2023-01-15T03:38:23.776Z,12.50
2023-01-15T03:42:47.246Z,12.50
2023-01-15T03:47:14.669Z,12.50
2023-01-15T03:51:30.241Z,12.50
2023-01-15T03:55:42.152Z,12.40
2023-01-15T03:59:59.443Z,12.40
2023-01-15T04:04:03.675Z,12.40
2023-01-15T04:08:05.454Z,12.30
2023-01-15T04:12:07.759Z,12.40
2023-01-15T04:16:09.830Z,12.40
2023-01-15T04:20:11.895Z,12.40
2023-01-15T04:24:13.631Z,12.40
2023-01-15T04:28:15.431Z,12.40
2023-01-15T04:32:17.205Z,12.40
2023-01-15T04:36:19.045Z,12.30
2023-01-15T04:40:39.218Z,12.40
2023-01-15T04:44:40.948Z,12.40
2023-01-15T04:48:42.660Z,12.30
2023-01-15T04:52:44.550Z,12.30
2023-01-15T04:56:50.310Z,12.40
2023-01-15T05:00:52.022Z,12.40
2023-01-15T05:04:53.770Z,12.50
2023-01-15T05:08:55.639Z,12.50
2023-01-15T05:12:57.489Z,12.50
2023-01-15T05:16:59.309Z,12.60
2023-01-15T05:21:01.008Z,12.60
2023-01-15T05:25:02.772Z,12.60
2023-01-15T05:29:04.901Z,12.50
2023-01-15T05:33:06.749Z,12.60
2023-01-15T05:37:08.477Z,12.60
2023-01-15T05:41:57.099Z,12.60
2023-01-15T05:46:02.402Z,12.70
2023-01-15T05:50:04.851Z,12.70
2023-01-15T05:54:08.403Z,12.70
2023-01-15T05:58:10.203Z,12.70
2023-01-15T06:02:12.088Z,12.70
2023-01-15T06:06:15.163Z,12.70
2023-01-15T06:10:18.280Z,12.80
2023-01-15T06:14:24.283Z,12.80
2023-01-15T06:18:26.069Z,12.70
2023-01-15T06:22:27.865Z,12.80
2023-01-15T06:26:31.830Z,12.70
2023-01-15T06:30:36.872Z,12.70
2023-01-15T06:34:44.531Z,12.70
2023-01-15T06:38:46.355Z,12.60
2023-01-15T06:43:06.325Z,12.20
2023-01-15T06:47:22.109Z,11.70
2023-01-15T06:51:25.139Z,11.40
2023-01-15T06:55:26.998Z,11.10
2023-01-15T06:59:28.908Z,10.20
2023-01-15T07:03:30.769Z,9.40
2023-01-15T07:07:32.659Z,8.80
2023-01-15T07:11:34.377Z,8.60
2023-01-15T07:15:38.925Z,8.40
2023-01-15T07:19:40.775Z,8.10
2023-01-15T07:23:42.616Z,7.90
2023-01-15T07:27:46.679Z,7.80
2023-01-15T07:31:48.445Z,7.70
2023-01-15T07:35:50.179Z,7.70
2023-01-15T07:39:52.032Z,7.60
2023-01-15T07:44:12.275Z,7.60
2023-01-15T07:48:32.243Z,7.60
2023-01-15T07:52:33.971Z,7.60
2023-01-15T07:56:36.167Z,7.70
2023-01-15T08:00:37.936Z,7.70
2023-01-15T08:04:45.483Z,7.60
2023-01-15T08:08:47.556Z,7.50
2023-01-15T08:13:16.048Z,7.40
2023-01-15T08:17:17.858Z,7.40
2023-01-15T08:21:21.548Z,7.50
2023-01-15T08:25:24.732Z,7.50
2023-01-15T08:29:26.511Z,7.60
2023-01-15T08:33:28.552Z,7.70
2023-01-15T08:37:30.355Z,7.90
2023-01-15T08:41:32.320Z,7.90
2023-01-15T08:45:34.149Z,7.80
2023-01-15T08:49:36.005Z,7.80
2023-01-15T08:53:38.748Z,7.60
2023-01-15T08:57:40.487Z,7.80
2023-01-15T09:01:45.781Z,7.80
2023-01-15T09:05:50.604Z,7.90
2023-01-15T09:09:52.476Z,8.10
2023-01-15T09:13:54.525Z,8.10
2023-01-15T09:17:58.621Z,8.00
2023-01-15T09:22:00.334Z,8.10
2023-01-15T09:26:08.073Z,8.20
2023-01-15T09:30:16.288Z,8.20
2023-01-15T09:34:18.186Z,8.20
2023-01-15T09:38:21.509Z,8.20
2023-01-15T09:42:36.632Z,8.30
2023-01-15T09:47:05.149Z,8.20
2023-01-15T09:51:26.998Z,8.30
2023-01-15T09:55:32.596Z,8.30
2023-01-15T09:59:39.243Z,8.30
2023-01-15T10:03:49.041Z,8.30
2023-01-15T10:08:12.051Z,8.30
2023-01-15T10:12:36.400Z,8.20
2023-01-15T10:16:38.208Z,8.20
2023-01-15T10:21:07.450Z,8.20
2023-01-15T10:25:15.780Z,8.10
2023-01-15T10:29:39.304Z,8.20
2023-01-15T10:34:12.462Z,8.10
2023-01-15T10:38:54.189Z,8.20
2023-01-15T10:43:24.934Z,8.30
2023-01-15T10:47:37.048Z,8.20
2023-01-15T10:52:07.066Z,8.30
2023-01-15T10:56:25.933Z,8.30
2023-01-15T11:00:27.823Z,8.40
2023-01-15T11:04:31.639Z,8.50
2023-01-15T11:13:45.901Z,8.40
2023-01-15T11:18:09.469Z,8.50
2023-01-15T11:22:14.823Z,8.40
2023-01-15T11:26:25.816Z,8.40
2023-01-15T11:30:33.726Z,8.40
2023-01-15T11:34:38.644Z,8.40
2023-01-15T11:38:48.334Z,8.40
2023-01-15T11:43:09.757Z,8.40
2023-01-15T11:47:31.676Z,8.30
2023-01-15T11:51:44.436Z,8.30
2023-01-15T11:56:00.809Z,8.20
2023-01-15T12:00:06.716Z,8.20
2023-01-15T12:04:27.199Z,8.40
2023-01-15T12:09:00.547Z,8.40
2023-01-15T12:13:08.831Z,8.50
2023-01-15T12:17:40.333Z,8.40
2023-01-15T12:22:26.570Z,8.40
2023-01-15T12:26:33.662Z,8.40
2023-01-15T12:30:53.115Z,8.40
2023-01-15T12:35:05.291Z,8.50
2023-01-15T12:39:23.106Z,8.50
2023-01-15T12:43:46.798Z,8.50
2023-01-15T12:48:14.135Z,8.50
2023-01-15T12:52:28.529Z,8.50
2023-01-15T12:57:02.832Z,8.60
2023-01-15T13:01:21.812Z,8.70
2023-01-15T13:05:57.876Z,8.60
2023-01-15T13:10:31.054Z,8.50
2023-01-15T13:14:35.633Z,8.50
2023-01-15T13:19:13.157Z,8.50
2023-01-15T13:23:38.706Z,8.60
2023-01-15T13:28:13.682Z,8.60
2023-01-15T13:32:25.877Z,8.50
2023-01-15T13:36:33.873Z,8.60
2023-01-15T13:40:44.535Z,8.50
2023-01-15T13:44:52.134Z,8.50
2023-01-15T13:48:56.438Z,8.50
2023-01-15T13:53:15.099Z,8.40
2023-01-15T13:57:37.555Z,8.30
2023-01-15T14:01:42.701Z,8.30
2023-01-15T14:05:59.792Z,8.30
2023-01-15T14:10:56.011Z,8.30
2023-01-15T14:15:40.910Z,8.30
2023-01-15T14:20:13.074Z,8.20
2023-01-15T14:25:12.422Z,8.10
2023-01-15T14:29:55.829Z,8.00
2023-01-15T14:34:18.671Z,8.00
2023-01-15T14:38:23.650Z,7.90
2023-01-15T14:42:57.314Z,7.80
2023-01-15T14:47:06.639Z,7.70
2023-01-15T14:51:14.850Z,7.60
2023-01-15T14:55:19.633Z,7.50
2023-01-15T14:59:49.708Z,7.50
2023-01-15T15:04:16.387Z,7.40
2023-01-15T15:08:19.014Z,7.30
2023-01-15T15:12:44.987Z,7.20
2023-01-15T15:16:48.314Z,7.20
2023-01-15T15:20:59.046Z,7.20
2023-01-15T15:25:02.749Z,7.10
2023-01-15T15:29:13.348Z,7.10
2023-01-15T15:33:29.995Z,7.00
2023-01-15T15:37:32.809Z,7.00
2023-01-15T15:41:54.896Z,7.00
2023-01-15T15:46:16.100Z,7.00
2023-01-15T15:50:33.179Z,7.00
2023-01-15T15:54:46.711Z,6.90
2023-01-15T15:58:51.440Z,6.80
2023-01-15T16:03:57.612Z,6.80
2023-01-15T16:09:10.000Z,6.70
2023-01-15T16:14:18.707Z,6.70
2023-01-15T16:18:36.496Z,6.70
2023-01-15T16:22:38.685Z,6.60
2023-01-15T16:26:49.579Z,6.60
2023-01-15T16:31:35.017Z,6.60
2023-01-15T16:35:49.267Z,6.40
2023-01-15T16:39:58.192Z,6.40
2023-01-15T16:44:13.158Z,6.30
2023-01-15T16:48:27.644Z,6.30
2023-01-15T16:52:50.412Z,6.30
2023-01-15T16:56:56.678Z,6.20
2023-01-15T17:00:58.833Z,6.20
2023-01-15T17:05:05.536Z,6.10
2023-01-15T17:09:18.812Z,6.00
2023-01-15T17:13:31.354Z,6.00
2023-01-15T17:17:34.993Z,6.00
2023-01-15T17:21:37.988Z,5.90
2023-01-15T17:25:43.093Z,5.90
2023-01-15T17:29:45.095Z,5.90
2023-01-15T17:33:47.334Z,5.80
2023-01-15T17:37:49.427Z,5.80
2023-01-15T17:41:57.602Z,5.80
2023-01-15T17:46:09.977Z,5.70
2023-01-15T17:50:20.256Z,5.70
2023-01-15T17:54:46.056Z,5.80
2023-01-15T17:59:09.624Z,5.80
2023-01-15T18:03:36.365Z,5.80
2023-01-15T18:07:44.667Z,5.70
2023-01-15T18:12:18.140Z,5.80
2023-01-15T18:17:05.974Z,5.70
2023-01-15T18:22:15.126Z,5.70
2023-01-15T18:26:38.516Z,5.70
2023-01-15T18:31:03.767Z,5.70
2023-01-15T18:40:00.276Z,5.70
2023-01-15T18:44:44.895Z,5.70
2023-01-15T18:48:47.203Z,5.60
2023-01-15T18:52:52.165Z,5.70
2023-01-15T18:56:56.983Z,5.70
2023-01-15T19:01:13.400Z,5.60
2023-01-15T19:05:17.260Z,5.60
2023-01-15T19:09:27.031Z,5.70
2023-01-15T19:13:29.143Z,5.70
2023-01-15T19:18:02.845Z,5.70
2023-01-15T19:22:23.414Z,5.60
2023-01-15T19:26:25.402Z,5.60
2023-01-15T19:30:27.778Z,5.60
2023-01-15T19:34:34.143Z,5.50
2023-01-15T19:38:41.286Z,5.60
2023-01-15T19:43:01.358Z,5.60
2023-01-15T19:47:21.985Z,5.60
2023-01-15T19:51:43.774Z,5.60
2023-01-15T19:55:45.878Z,5.60
2023-01-15T19:59:48.745Z,5.60
2023-01-15T20:03:50.544Z,5.60
2023-01-15T20:07:54.008Z,5.70
2023-01-15T20:12:14.075Z,5.60
2023-01-15T20:16:22.315Z,5.60
2023-01-15T20:20:25.201Z,5.70
2023-01-15T20:24:27.090Z,5.60
2023-01-15T20:28:28.925Z,5.70
2023-01-15T20:32:30.740Z,5.70
2023-01-15T20:36:34.775Z,5.70
2023-01-15T20:40:36.861Z,5.60
2023-01-15T20:44:53.946Z,5.70
2023-01-15T20:49:14.156Z,5.70
2023-01-15T20:53:15.885Z,5.70
2023-01-15T20:57:17.659Z,5.80
2023-01-15T21:01:24.957Z,5.90
2023-01-15T21:05:26.851Z,5.90
2023-01-15T21:09:28.750Z,5.90
2023-01-15T21:13:31.168Z,6.00
2023-01-15T21:17:33.317Z,5.90
2023-01-15T21:21:35.282Z,5.90
2023-01-15T21:25:38.561Z,5.90
2023-01-15T21:29:42.573Z,5.90
2023-01-15T21:33:44.578Z,5.80
2023-01-15T21:37:46.455Z,5.80
2023-01-15T21:42:08.803Z,5.80
2023-01-15T21:46:10.869Z,5.80
2023-01-15T21:50:12.730Z,5.80
2023-01-15T21:54:14.650Z,5.80
2023-01-15T21:58:16.688Z,5.70
2023-01-15T22:02:23.994Z,5.70
2023-01-15T22:06:28.071Z,5.80
2023-01-15T22:10:30.311Z,5.80
2023-01-15T22:14:32.816Z,5.70
2023-01-15T22:18:34.745Z,5.70
2023-01-15T22:22:39.061Z,5.70
2023-01-15T22:26:43.843Z,5.70
2023-01-15T22:30:46.038Z,5.70
2023-01-15T22:34:48.033Z,5.60
2023-01-15T22:38:54.764Z,5.60
2023-01-15T22:42:59.144Z,5.60
2023-01-15T22:47:02.340Z,5.50
2023-01-15T22:51:04.359Z,5.50
2023-01-15T22:55:07.077Z,5.50
2023-01-15T22:59:09.952Z,5.40
2023-01-15T23:03:12.121Z,5.50
2023-01-15T23:07:13.858Z,5.50
2023-01-15T23:11:16.260Z,5.60
2023-01-15T23:15:18.099Z,5.70
2023-01-15T23:19:20.005Z,5.80
2023-01-15T23:23:21.807Z,5.90
2023-01-15T23:27:23.622Z,5.90
2023-01-15T23:31:25.711Z,6.00
2023-01-15T23:35:27.473Z,6.00
2023-01-15T23:39:29.212Z,6.00
2023-01-15T23:43:49.267Z,6.00
2023-01-15T23:47:51.108Z,5.90
2023-01-15T23:51:52.921Z,5.80
2023-01-15T23:55:57.913Z,5.70
2023-01-15T23:59:59.672Z,5.70
